Time;durP1;ratioP1;P1;durP2;ratioP2;P2;SDS_P1;SDS_P2;PMS_P1;PMS_P2;Temp;Humidity;BMP_temperature;BMP_pressure;BME280_temperature;BME280_humidity;BME280_pressure;Samples;Min_cycle;Max_cycle;Signal;HPM_P1;HPM_P2
2023/07/12 00:00:23;;;;;;;3.90;3.50;;;28.20;53.40;;;;;;4996069;28;20800;-66
2023/07/12 00:02:49;;;;;;;9.07;3.47;;;28.20;53.40;;;;;;4996108;28;20164;-66
2023/07/12 00:05:16;;;;;;;4.13;3.50;;;28.20;53.40;;;;;;4996040;28;20494;-66
2023/07/12 00:07:45;;;;;;;4.50;3.37;;;28.20;53.40;;;;;;4995893;28;20439;-66
2023/07/12 00:10:20;;;;;;;3.23;2.93;;;28.20;53.40;;;;;;4995755;28;20424;-65
2023/07/12 00:12:46;;;;;;;3.20;2.90;;;28.20;53.50;;;;;;4995936;28;20529;-66
2023/07/12 00:15:15;;;;;;;5.07;3.03;;;28.20;53.50;;;;;;4995859;28;20951;-66
2023/07/12 00:17:41;;;;;;;3.77;3.30;;;28.20;53.50;;;;;;4995763;28;20452;-66
2023/07/12 00:20:29;;;;;;;3.63;2.60;;;28.20;53.60;;;;;;4995765;28;20987;-67
2023/07/12 00:22:56;;;;;;;3.37;3.03;;;28.20;53.50;;;;;;4996046;28;20176;-66
2023/07/12 00:25:27;;;;;;;3.50;3.10;;;28.20;53.60;;;;;;4995791;28;20404;-66
2023/07/12 00:27:52;;;;;;;5.53;3.30;;;28.10;53.50;;;;;;4995698;28;20423;-66
2023/07/12 00:30:29;;;;;;;3.43;3.13;;;28.20;53.60;;;;;;4995634;28;20404;-65
2023/07/12 00:32:57;;;;;;;4.00;3.60;;;28.20;53.70;;;;;;4995586;28;20193;-67
2023/07/12 00:35:25;;;;;;;4.30;3.67;;;28.20;53.70;;;;;;4995850;28;20775;-66
2023/07/12 00:37:54;;;;;;;3.57;3.10;;;28.20;53.70;;;;;;4995729;28;20837;-66
2023/07/12 00:40:41;;;;;;;4.07;3.30;;;28.20;53.70;;;;;;4995477;28;20400;-65
2023/07/12 00:43:27;;;;;;;3.90;3.50;;;28.20;53.70;;;;;;4995634;28;20400;-65
2023/07/12 00:45:54;;;;;;;6.40;3.20;;;28.20;53.80;;;;;;4995650;28;20393;-66
2023/07/12 00:48:20;;;;;;;3.80;3.13;;;28.20;53.80;;;;;;4995127;28;20435;-65
2023/07/12 00:50:48;;;;;;;4.50;3.30;;;28.20;53.80;;;;;;4995205;28;20924;-66
2023/07/12 00:53:19;;;;;;;4.13;3.40;;;28.20;53.80;;;;;;4995400;28;20216;-66
2023/07/12 00:55:57;;;;;;;3.33;3.03;;;28.20;53.90;;;;;;4995144;28;20416;-64
2023/07/12 00:58:29;;;;;;;3.87;3.57;;;28.20;54.00;;;;;;4995342;28;20967;-66
2023/07/12 01:00:58;;;;;;;3.97;3.03;;;28.20;54.00;;;;;;4994949;28;20424;-66
2023/07/12 01:03:28;;;;;;;3.20;2.90;;;28.20;53.90;;;;;;4995022;28;20412;-65
2023/07/12 01:05:54;;;;;;;5.80;3.10;;;28.10;53.90;;;;;;4995106;28;20784;-66
2023/07/12 01:08:20;;;;;;;3.67;3.30;;;28.20;54.00;;;;;;4994891;28;20522;-64
2023/07/12 01:10:46;;;;;;;4.00;3.23;;;28.20;54.00;;;;;;4994889;28;20173;-67
2023/07/12 01:13:11;;;;;;;3.60;3.30;;;28.20;54.00;;;;;;4994809;28;20456;-65
2023/07/12 01:15:37;;;;;;;3.70;3.40;;;28.20;54.00;;;;;;4994784;28;20260;-66
2023/07/12 01:18:03;;;;;;;4.40;3.00;;;28.20;54.60;;;;;;4994994;28;20292;-65
2023/07/12 01:20:36;;;;;;;4.40;3.37;;;28.20;54.00;;;;;;4994768;28;20323;-65
2023/07/12 01:23:02;;;;;;;3.37;3.07;;;28.20;54.10;;;;;;4994738;28;20483;-66
2023/07/12 01:25:41;;;;;;;3.53;3.20;;;28.20;54.00;;;;;;4994630;28;20413;-66
2023/07/12 01:28:06;;;;;;;3.87;3.50;;;28.20;54.00;;;;;;4994627;28;20519;-65
2023/07/12 01:30:32;;;;;;;6.40;3.00;;;28.20;54.00;;;;;;4993276;28;20547;-65
2023/07/12 01:32:58;;;;;;;4.63;3.43;;;28.20;54.00;;;;;;4994462;28;20201;-66
2023/07/12 01:35:24;;;;;;;3.80;3.07;;;28.20;54.00;;;;;;4994414;28;20452;-65
2023/07/12 01:37:50;;;;;;;3.97;3.57;;;28.20;54.00;;;;;;4994319;28;20463;-65
2023/07/12 01:40:16;;;;;;;4.07;3.40;;;28.20;54.00;;;;;;4994635;28;20712;-67
2023/07/12 01:42:41;;;;;;;2.77;2.57;;;28.20;54.00;;;;;;4994323;28;20661;-65
2023/07/12 01:45:07;;;;;;;4.00;3.60;;;28.20;54.10;;;;;;4994283;28;20654;-66
2023/07/12 01:47:33;;;;;;;5.93;4.17;;;28.20;54.00;;;;;;4994086;28;20193;-65
2023/07/12 01:49:59;;;;;;;3.60;2.70;;;28.20;54.00;;;;;;4994098;28;20846;-66
2023/07/12 01:52:24;;;;;;;3.53;3.07;;;28.20;54.00;;;;;;4994054;28;20173;-66
2023/07/12 01:54:50;;;;;;;3.83;3.00;;;28.20;54.00;;;;;;4994345;28;20292;-65
2023/07/12 01:57:15;;;;;;;4.00;3.10;;;28.20;54.10;;;;;;4993912;28;20609;-67
2023/07/12 01:59:41;;;;;;;3.27;2.80;;;28.20;54.10;;;;;;4993234;28;20208;-66
2023/07/12 02:02:08;;;;;;;3.40;3.10;;;28.20;54.20;;;;;;4993894;28;20177;-66
2023/07/12 02:04:34;;;;;;;3.67;3.03;;;28.20;54.30;;;;;;4993917;28;20412;-66
2023/07/12 02:06:59;;;;;;;4.00;3.20;;;28.20;54.20;;;;;;4993724;28;20440;-66
2023/07/12 02:09:35;;;;;;;3.63;3.20;;;28.20;54.30;;;;;;4993822;28;20184;-66
2023/07/12 02:12:00;;;;;;;3.20;2.90;;;28.20;54.30;;;;;;4993799;28;20185;-67
2023/07/12 02:14:27;;;;;;;5.37;2.90;;;28.20;54.30;;;;;;4993657;28;20969;-66
2023/07/12 02:16:52;;;;;;;3.33;3.03;;;28.20;54.80;;;;;;4993642;28;20196;-66
2023/07/12 02:19:18;;;;;;;5.60;3.20;;;28.20;54.30;;;;;;4993593;28;20408;-65
2023/07/12 02:21:43;;;;;;;2.77;2.57;;;28.20;54.20;;;;;;4993559;28;20173;-66
2023/07/12 02:24:09;;;;;;;4.63;3.20;;;28.20;54.20;;;;;;4993461;28;20177;-66
2023/07/12 02:26:35;;;;;;;3.20;2.90;;;28.10;54.10;;;;;;4993320;28;20184;-66
2023/07/12 02:29:00;;;;;;;3.73;3.40;;;28.20;54.20;;;;;;4993405;28;20216;-66
2023/07/12 02:31:29;;;;;;;4.10;3.00;;;28.20;54.20;;;;;;4993379;28;20507;-65
2023/07/12 02:33:54;;;;;;;5.63;2.90;;;28.20;54.20;;;;;;4993326;28;20629;-67
2023/07/12 02:36:20;;;;;;;3.10;2.80;;;28.20;54.10;;;;;;4991978;28;20499;-66
2023/07/12 02:38:48;;;;;;;4.10;3.10;;;28.20;54.20;;;;;;4993132;28;20531;-67
2023/07/12 02:41:15;;;;;;;3.30;2.97;;;28.20;54.30;;;;;;4993204;28;20235;-65
2023/07/12 02:43:41;;;;;;;4.43;3.40;;;28.20;54.40;;;;;;4993118;28;20428;-66
2023/07/12 02:46:06;;;;;;;4.23;3.83;;;28.20;54.40;;;;;;4993116;28;20408;-66
2023/07/12 02:48:32;;;;;;;4.37;3.07;;;28.10;54.30;;;;;;4993306;28;20232;-66
2023/07/12 02:50:58;;;;;;;3.03;2.80;;;28.20;54.30;;;;;;4993030;28;20165;-66
2023/07/12 02:53:23;;;;;;;4.27;3.30;;;28.20;54.30;;;;;;4992936;28;20568;-66
2023/07/12 02:55:50;;;;;;;4.13;3.57;;;28.20;54.40;;;;;;4992912;28;20168;-66
2023/07/12 02:58:16;;;;;;;3.37;3.07;;;28.20;54.30;;;;;;4992924;28;20275;-66
2023/07/12 03:00:42;;;;;;;3.90;3.60;;;28.10;54.30;;;;;;4992833;28;20924;-65
2023/07/12 03:03:09;;;;;;;4.20;2.57;;;28.20;54.30;;;;;;4992932;28;20550;-66
2023/07/12 03:05:38;;;;;;;4.20;3.53;;;28.20;54.40;;;;;;4992867;28;20176;-66
2023/07/12 03:08:04;;;;;;;3.57;3.27;;;28.10;54.30;;;;;;4992769;28;20443;-67
2023/07/12 03:10:30;;;;;;;3.00;2.73;;;28.20;54.30;;;;;;4992867;28;20420;-66
2023/07/12 03:12:56;;;;;;;4.23;3.70;;;28.20;54.40;;;;;;4991844;28;20203;-66
2023/07/12 03:15:21;;;;;;;4.37;3.47;;;28.20;54.40;;;;;;4992703;28;20412;-67
2023/07/12 03:17:47;;;;;;;6.67;3.33;;;28.20;54.30;;;;;;4992599;28;20207;-66
2023/07/12 03:20:13;;;;;;;3.60;3.30;;;28.20;54.30;;;;;;4992634;28;20634;-67
2023/07/12 03:22:38;;;;;;;4.57;3.33;;;28.10;54.30;;;;;;4992636;28;20225;-65
2023/07/12 03:25:04;;;;;;;4.37;3.40;;;28.20;54.40;;;;;;4992587;28;20178;-66
2023/07/12 03:27:30;;;;;;;5.03;3.10;;;28.20;54.40;;;;;;4992813;28;20240;-66
2023/07/12 03:29:55;;;;;;;4.77;3.03;;;28.20;54.30;;;;;;4992560;28;20223;-66
2023/07/12 03:32:22;;;;;;;4.37;3.40;;;28.10;54.40;;;;;;4992723;28;20184;-65
2023/07/12 03:34:48;;;;;;;4.10;3.50;;;28.20;54.40;;;;;;4992516;28;20268;-65
2023/07/12 03:37:13;;;;;;;4.43;4.03;;;28.20;54.40;;;;;;4992370;28;20519;-66
2023/07/12 03:39:39;;;;;;;3.80;2.57;;;28.20;54.40;;;;;;4992466;28;20181;-66
2023/07/12 03:42:05;;;;;;;3.83;3.43;;;28.20;54.40;;;;;;4992515;28;20195;-66
2023/07/12 03:44:30;;;;;;;4.97;3.47;;;28.10;54.30;;;;;;4992442;28;20180;-66
2023/07/12 03:46:56;;;;;;;4.63;3.23;;;28.10;54.40;;;;;;4992368;28;20193;-66
2023/07/12 03:49:22;;;;;;;3.20;2.90;;;28.20;54.40;;;;;;4992399;28;20232;-67
2023/07/12 03:51:47;;;;;;;3.50;2.73;;;28.10;54.30;;;;;;4992385;28;20274;-65
2023/07/12 03:54:13;;;;;;;4.10;3.77;;;28.20;54.40;;;;;;4992305;28;20196;-65
2023/07/12 03:56:39;;;;;;;3.13;2.83;;;28.20;54.40;;;;;;4992576;28;20188;-66
2023/07/12 03:59:06;;;;;;;4.27;2.90;;;28.20;54.40;;;;;;4992298;28;20901;-64
2023/07/12 04:01:31;;;;;;;3.63;3.20;;;28.20;54.50;;;;;;4992283;28;20247;-65
2023/07/12 04:03:57;;;;;;;3.70;3.13;;;28.20;54.60;;;;;;4992268;28;20882;-66
2023/07/12 04:06:22;;;;;;;3.63;3.10;;;28.20;55.00;;;;;;4990959;28;20185;-66
2023/07/12 04:08:48;;;;;;;3.23;2.80;;;28.10;54.40;;;;;;4992113;28;20201;-64
2023/07/12 04:11:32;;;;;;;3.00;2.70;;;28.10;54.40;;;;;;4992160;28;20658;-66
2023/07/12 04:14:02;;;;;;;4.03;3.30;;;28.20;54.50;;;;;;4992114;28;20374;-65
2023/07/12 04:16:29;;;;;;;3.83;2.73;;;28.20;54.40;;;;;;4992166;28;20448;-65
2023/07/12 04:18:55;;;;;;;3.33;3.03;;;28.10;54.40;;;;;;4991806;28;20903;-66
2023/07/12 04:21:21;;;;;;;3.07;2.57;;;28.10;54.40;;;;;;4992156;28;20550;-65
2023/07/12 04:23:48;;;;;;;5.40;2.90;;;28.10;54.40;;;;;;4993981;28;20280;-66
2023/07/12 04:26:15;;;;;;;6.13;3.50;;;28.10;54.40;;;;;;4996008;28;20423;-65
2023/07/12 04:28:43;;;;;;;3.40;3.10;;;28.10;54.40;;;;;;4996196;28;20803;-67
2023/07/12 04:31:12;;;;;;;4.67;3.13;;;28.20;54.40;;;;;;4995903;28;20411;-66
2023/07/12 04:33:38;;;;;;;3.60;3.30;;;28.10;54.40;;;;;;4994867;28;20459;-66
2023/07/12 04:36:06;;;;;;;2.90;2.70;;;28.10;54.40;;;;;;4995230;28;20442;-64
2023/07/12 04:38:32;;;;;;;3.83;2.93;;;28.20;54.40;;;;;;4995683;28;20432;-66
2023/07/12 04:40:58;;;;;;;2.93;2.60;;;28.10;54.40;;;;;;4995480;28;20416;-66
2023/07/12 04:43:24;;;;;;;6.20;2.60;;;28.20;54.40;;;;;;4995467;28;20423;-66
2023/07/12 04:45:50;;;;;;;2.53;2.17;;;28.10;54.40;;;;;;4995335;28;20169;-66
2023/07/12 04:48:16;;;;;;;4.23;2.73;;;28.20;54.40;;;;;;4995324;28;20580;-66
2023/07/12 04:50:42;;;;;;;2.90;2.50;;;28.20;54.40;;;;;;4995032;28;20503;-66
2023/07/12 04:53:07;;;;;;;4.60;2.90;;;28.20;54.40;;;;;;4995178;28;20201;-69
2023/07/12 04:55:34;;;;;;;2.83;2.60;;;28.20;54.40;;;;;;4995159;28;20570;-66
2023/07/12 04:57:59;;;;;;;2.60;2.40;;;28.20;54.40;;;;;;4995375;28;20203;-66
2023/07/12 05:00:25;;;;;;;2.93;2.67;;;28.20;54.40;;;;;;4994954;28;20444;-65
2023/07/12 05:02:52;;;;;;;3.03;2.70;;;28.20;54.40;;;;;;4994830;28;20180;-65
2023/07/12 05:05:20;;;;;;;5.57;3.10;;;28.20;54.40;;;;;;4993994;28;20812;-66
2023/07/12 05:07:46;;;;;;;3.23;2.73;;;28.20;54.40;;;;;;4994029;28;20848;-67
2023/07/12 05:10:11;;;;;;;4.90;2.40;;;28.20;54.40;;;;;;4992223;28;20412;-66
2023/07/12 05:12:38;;;;;;;2.67;2.10;;;28.20;54.40;;;;;;4992606;28;20865;-67
2023/07/12 05:15:05;;;;;;;2.80;2.60;;;28.20;54.40;;;;;;4992755;28;20181;-66
2023/07/12 05:17:31;;;;;;;2.93;2.33;;;28.20;54.40;;;;;;4992822;28;20440;-66
2023/07/12 05:19:57;;;;;;;3.30;2.60;;;28.20;54.40;;;;;;4994525;28;20420;-66
2023/07/12 05:22:24;;;;;;;3.40;2.60;;;28.20;54.40;;;;;;4994527;28;20542;-65
2023/07/12 05:24:49;;;;;;;4.27;3.00;;;28.20;54.30;;;;;;4994462;28;20415;-67
2023/07/12 05:27:15;;;;;;;2.43;2.13;;;28.20;54.30;;;;;;4994337;28;20803;-65
2023/07/12 05:29:41;;;;;;;3.43;2.50;;;28.20;54.30;;;;;;4994851;28;20204;-66
2023/07/12 05:32:07;;;;;;;3.83;2.40;;;28.20;54.30;;;;;;4994556;28;20658;-66
2023/07/12 05:34:33;;;;;;;2.63;2.17;;;28.20;54.30;;;;;;4993867;28;20224;-64
2023/07/12 05:36:58;;;;;;;2.73;2.40;;;28.20;54.30;;;;;;4994186;28;20803;-64
2023/07/12 05:39:24;;;;;;;3.07;2.43;;;28.20;54.30;;;;;;4994388;28;20207;-66
2023/07/12 05:41:49;;;;;;;2.30;2.10;;;28.20;54.30;;;;;;4994243;28;20177;-64
2023/07/12 05:44:15;;;;;;;2.30;2.10;;;28.20;54.30;;;;;;4994303;28;20268;-62
2023/07/12 05:46:41;;;;;;;2.33;1.93;;;28.20;54.30;;;;;;4994153;28;20548;-62
2023/07/12 05:49:07;;;;;;;2.20;2.00;;;28.20;54.30;;;;;;4994190;28;20181;-64
2023/07/12 05:51:32;;;;;;;4.27;2.40;;;28.20;54.30;;;;;;4994088;28;20181;-61
2023/07/12 05:53:58;;;;;;;3.17;2.10;;;28.20;54.20;;;;;;4993901;28;20572;-64
2023/07/12 05:56:24;;;;;;;3.07;2.20;;;28.20;54.30;;;;;;4994077;28;20257;-64
2023/07/12 05:58:49;;;;;;;3.30;2.20;;;28.20;54.30;;;;;;4994136;28;20670;-62
2023/07/12 06:01:17;;;;;;;2.00;1.80;;;28.30;54.30;;;;;;4993831;28;20185;-64
2023/07/12 06:03:43;;;;;;;6.20;2.27;;;28.20;54.30;;;;;;4993887;28;20265;-63
2023/07/12 06:06:09;;;;;;;3.47;2.10;;;28.30;54.30;;;;;;4993864;28;20499;-63
2023/07/12 06:08:35;;;;;;;2.27;2.07;;;28.20;54.30;;;;;;4993777;28;20195;-64
2023/07/12 06:11:01;;;;;;;2.20;1.97;;;28.20;54.40;;;;;;4992570;28;20789;-64
2023/07/12 06:13:27;;;;;;;2.10;1.90;;;28.20;54.40;;;;;;4993665;28;20205;-63
2023/07/12 06:15:53;;;;;;;4.20;2.30;;;28.30;54.40;;;;;;4993700;28;20177;-64
2023/07/12 06:18:19;;;;;;;1.93;1.73;;;28.30;54.50;;;;;;4993629;28;20936;-63
2023/07/12 06:20:45;;;;;;;4.23;2.17;;;28.20;54.50;;;;;;4993599;28;20165;-62
2023/07/12 06:23:11;;;;;;;2.30;1.90;;;28.20;54.40;;;;;;4994071;28;20414;-64
2023/07/12 06:25:37;;;;;;;3.00;2.23;;;28.30;54.60;;;;;;4993484;28;20475;-63
2023/07/12 06:28:03;;;;;;;2.03;1.83;;;28.30;54.60;;;;;;4993700;28;20280;-62
2023/07/12 06:30:29;;;;;;;3.07;1.87;;;28.30;54.60;;;;;;4992080;28;20427;-63
2023/07/12 06:32:55;;;;;;;2.20;1.97;;;28.20;54.60;;;;;;4993221;28;20957;-64
2023/07/12 06:35:20;;;;;;;3.10;2.10;;;28.30;54.60;;;;;;4993323;28;20236;-63
2023/07/12 06:37:46;;;;;;;3.97;1.83;;;28.20;54.60;;;;;;4993464;28;20212;-65
2023/07/12 06:40:12;;;;;;;2.90;2.00;;;28.20;54.60;;;;;;4993247;28;20260;-63
2023/07/12 06:42:37;;;;;;;2.20;2.00;;;28.30;54.60;;;;;;4993099;28;20261;-63
2023/07/12 06:45:03;;;;;;;3.80;2.30;;;28.30;54.70;;;;;;4993129;28;20232;-64
2023/07/12 06:47:31;;;;;;;3.60;1.97;;;28.30;54.70;;;;;;4992823;28;20189;-62
2023/07/12 06:49:57;;;;;;;1.70;1.60;;;28.30;54.70;;;;;;4993054;28;20176;-64
2023/07/12 06:52:22;;;;;;;2.73;1.80;;;28.30;54.70;;;;;;4993028;28;20417;-65
2023/07/12 06:54:48;;;;;;;3.40;1.80;;;28.30;54.70;;;;;;4991571;28;20503;-64
2023/07/12 06:57:14;;;;;;;2.50;1.73;;;28.30;54.70;;;;;;4992939;28;20193;-66
2023/07/12 06:59:39;;;;;;;4.03;1.80;;;28.30;54.70;;;;;;4993131;28;20263;-65
2023/07/12 07:02:08;;;;;;;2.17;1.70;;;28.30;54.70;;;;;;4992951;28;20556;-65
2023/07/12 07:04:34;;;;;;;2.87;2.30;;;28.30;54.70;;;;;;4992845;28;20173;-66
2023/07/12 07:06:59;;;;;;;2.60;1.67;;;28.30;54.70;;;;;;4992795;28;21007;-64
2023/07/12 07:09:25;;;;;;;3.27;1.83;;;28.30;54.80;;;;;;4992793;28;20620;-66
2023/07/12 07:11:50;;;;;;;2.40;1.80;;;28.30;54.80;;;;;;4992863;28;20185;-63
2023/07/12 07:14:16;;;;;;;3.13;2.20;;;28.30;54.80;;;;;;4992799;28;20233;-66
2023/07/12 07:16:42;;;;;;;1.93;1.80;;;28.30;54.80;;;;;;4992689;28;20656;-64
2023/07/12 07:19:08;;;;;;;3.57;2.27;;;28.30;54.80;;;;;;4992938;28;20299;-64
2023/07/12 07:21:33;;;;;;;2.20;2.00;;;28.30;54.80;;;;;;4992695;28;20446;-64
2023/07/12 07:23:59;;;;;;;3.20;2.00;;;28.30;54.80;;;;;;4992880;28;20192;-65
2023/07/12 07:26:25;;;;;;;3.50;1.90;;;28.30;54.80;;;;;;4992549;28;20279;-63
2023/07/12 07:28:51;;;;;;;2.20;1.70;;;28.30;54.80;;;;;;4992643;28;20575;-65
2023/07/12 07:31:16;;;;;;;2.40;2.20;;;28.30;54.80;;;;;;4992532;28;20420;-64
2023/07/12 07:33:42;;;;;;;2.97;2.33;;;28.30;54.80;;;;;;4992671;28;20664;-66
2023/07/12 07:36:11;;;;;;;3.97;2.37;;;28.30;54.80;;;;;;4992826;28;20235;-65
2023/07/12 07:38:37;;;;;;;2.27;2.07;;;28.30;54.80;;;;;;4992447;28;20196;-66
2023/07/12 07:41:09;;;;;;;3.00;2.20;;;28.30;54.80;;;;;;4992425;28;20507;-64
2023/07/12 07:43:36;;;;;;;3.70;2.70;;;28.40;54.90;;;;;;4992458;28;20173;-66
2023/07/12 07:46:03;;;;;;;4.77;2.53;;;28.30;54.80;;;;;;4992678;28;20424;-65
2023/07/12 07:48:28;;;;;;;3.03;2.43;;;28.40;55.40;;;;;;4992481;28;20450;-65
2023/07/12 07:50:54;;;;;;;3.53;2.43;;;28.30;54.80;;;;;;4992482;28;20420;-65
2023/07/12 07:53:19;;;;;;;4.20;2.30;;;28.40;54.90;;;;;;4992311;28;20228;-65
2023/07/12 07:55:45;;;;;;;3.00;2.10;;;28.40;54.90;;;;;;4992378;28;20231;-65
2023/07/12 07:58:13;;;;;;;2.80;2.40;;;28.40;54.90;;;;;;4993177;28;20284;-64
2023/07/12 08:00:39;;;;;;;2.93;2.30;;;28.40;54.90;;;;;;4996294;28;20200;-65
2023/07/12 08:03:05;;;;;;;2.87;2.57;;;28.30;54.80;;;;;;4996199;28;20470;-64
2023/07/12 08:05:31;;;;;;;2.93;2.50;;;28.40;54.80;;;;;;4996203;28;20173;-65
2023/07/12 08:07:57;;;;;;;2.30;2.10;;;28.30;54.80;;;;;;4996073;28;20444;-65
2023/07/12 08:10:24;;;;;;;4.00;2.73;;;28.40;54.90;;;;;;4994873;28;20181;-65
2023/07/12 08:12:49;;;;;;;2.87;2.63;;;28.30;54.80;;;;;;4995872;28;20455;-67
2023/07/12 08:15:18;;;;;;;2.90;2.70;;;28.40;54.90;;;;;;4996040;28;20929;-64
2023/07/12 08:17:43;;;;;;;3.77;3.47;;;28.40;54.90;;;;;;4995765;28;20197;-65
2023/07/12 08:20:09;;;;;;;6.27;3.30;;;28.40;55.00;;;;;;4995989;28;20412;-64
2023/07/12 08:22:35;;;;;;;4.30;3.37;;;28.40;54.90;;;;;;4995897;28;20227;-66
2023/07/12 08:25:00;;;;;;;3.23;2.93;;;28.30;54.90;;;;;;4996076;28;20816;-65
2023/07/12 08:27:26;;;;;;;3.23;2.80;;;28.40;54.90;;;;;;4995777;28;20197;-65
2023/07/12 08:29:52;;;;;;;4.20;3.23;;;28.40;55.00;;;;;;4996014;28;20173;-64
2023/07/12 08:32:18;;;;;;;3.67;3.33;;;28.40;55.00;;;;;;4995785;28;20227;-64
2023/07/12 08:34:44;;;;;;;3.57;3.23;;;28.40;55.00;;;;;;4995566;28;20207;-65
2023/07/12 08:37:10;;;;;;;3.17;2.87;;;28.40;55.00;;;;;;4995578;28;20420;-65
2023/07/12 08:39:36;;;;;;;4.30;3.50;;;28.40;55.00;;;;;;4995594;28;20944;-65
2023/07/12 08:42:11;;;;;;;6.43;4.43;;;28.40;55.00;;;;;;4995462;28;20208;-65
2023/07/12 08:44:37;;;;;;;5.13;3.87;;;28.40;55.00;;;;;;4995547;28;20696;-64
2023/07/12 08:47:03;;;;;;;4.30;3.83;;;28.40;55.00;;;;;;4995371;28;20483;-65
2023/07/12 08:49:30;;;;;;;4.33;3.90;;;28.40;55.00;;;;;;4995281;28;20408;-64
2023/07/12 08:52:04;;;;;;;4.03;3.73;;;28.40;55.00;;;;;;4994481;28;20512;-63
2023/07/12 08:54:39;;;;;;;3.60;3.13;;;28.40;55.00;;;;;;4994798;28;20820;-66
2023/07/12 08:57:10;;;;;;;3.70;3.40;;;28.40;55.00;;;;;;4993330;28;20462;-66
2023/07/12 08:59:36;;;;;;;7.63;3.97;;;28.40;55.00;;;;;;4994816;28;20443;-65
2023/07/12 09:02:08;;;;;;;4.50;4.10;;;28.40;55.00;;;;;;4995165;28;20470;-65
2023/07/12 09:04:34;;;;;;;3.73;3.40;;;28.40;55.00;;;;;;4995137;28;20223;-64
2023/07/12 09:07:07;;;;;;;5.20;3.60;;;28.40;55.10;;;;;;4995063;28;20850;-64
2023/07/12 09:09:38;;;;;;;4.50;4.10;;;28.40;55.10;;;;;;4995240;28;20196;-64
2023/07/12 09:12:07;;;;;;;4.50;4.10;;;28.40;55.10;;;;;;4994926;28;20448;-64
2023/07/12 09:14:35;;;;;;;4.40;4.00;;;28.40;55.10;;;;;;4994888;28;20487;-64
2023/07/12 09:17:02;;;;;;;4.40;4.00;;;28.40;55.10;;;;;;4995032;28;20443;-67
2023/07/12 09:19:36;;;;;;;3.90;3.37;;;28.40;55.10;;;;;;4994686;28;20440;-64
2023/07/12 09:22:13;;;;;;;5.40;4.27;;;28.40;55.10;;;;;;4994837;28;20479;-66
2023/07/12 09:24:43;;;;;;;4.83;4.43;;;28.40;55.10;;;;;;4994709;28;20407;-65
2023/07/12 09:27:17;;;;;;;5.13;4.63;;;28.40;55.10;;;;;;4994606;28;20454;-66
2023/07/12 09:29:43;;;;;;;5.57;4.37;;;28.40;55.10;;;;;;4994651;28;20782;-67
2023/07/12 09:32:18;;;;;;;5.10;4.57;;;28.40;55.10;;;;;;4994589;28;20436;-66
2023/07/12 09:34:47;;;;;;;5.50;4.70;;;28.40;55.20;;;;;;4994789;28;20482;-66
2023/07/12 09:37:19;;;;;;;5.50;4.43;;;28.40;55.10;;;;;;4994439;28;20432;-64
2023/07/12 09:39:58;;;;;;;5.47;4.97;;;28.40;55.10;;;;;;4994738;28;20392;-64
2023/07/12 09:42:26;;;;;;;5.50;5.00;;;28.40;55.10;;;;;;4994342;28;20419;-64
2023/07/12 09:44:52;;;;;;;4.80;4.40;;;28.40;55.10;;;;;;4993077;28;20452;-65
2023/07/12 09:47:48;;;;;;;4.83;4.03;;;28.40;55.10;;;;;;4994305;28;21015;-65
2023/07/12 09:50:56;;;;;;;4.83;4.43;;;28.40;55.00;;;;;;4994311;28;20539;-65
2023/07/12 09:53:32;;;;;;;4.63;4.23;;;28.40;55.10;;;;;;4994148;28;20447;-66
2023/07/12 09:56:08;;;;;;;5.00;4.60;;;28.40;55.10;;;;;;4994091;28;20911;-63
2023/07/12 09:58:50;;;;;;;5.10;4.53;;;28.40;55.10;;;;;;4994072;28;20424;-64
2023/07/12 10:01:40;;;;;;;6.07;4.70;;;28.40;55.10;;;;;;4993913;28;20463;-63
2023/07/12 10:04:26;;;;;;;4.83;4.43;;;28.40;55.10;;;;;;4993961;28;20440;-66
2023/07/12 10:06:54;;;;;;;5.03;4.63;;;28.40;55.00;;;;;;4993906;28;20388;-65
2023/07/12 10:09:29;;;;;;;5.70;5.10;;;28.40;55.10;;;;;;4993885;28;20408;-67
2023/07/12 10:12:06;;;;;;;7.23;4.53;;;28.40;55.10;;;;;;4993890;28;20395;-63
2023/07/12 10:14:41;;;;;;;5.07;4.67;;;28.40;55.00;;;;;;4992169;28;20464;-65
2023/07/12 10:17:16;;;;;;;4.13;3.77;;;28.40;55.00;;;;;;4993961;28;20459;-64
2023/07/12 10:19:43;;;;;;;5.90;5.30;;;28.40;55.00;;;;;;4993771;28;20396;-65
2023/07/12 10:22:19;;;;;;;4.80;4.37;;;28.40;55.00;;;;;;4992132;28;20413;-64
2023/07/12 10:24:50;;;;;;;4.97;4.43;;;28.40;55.00;;;;;;4993716;28;20915;-64
2023/07/12 10:27:25;;;;;;;4.73;4.33;;;28.40;55.00;;;;;;4993839;28;20514;-64
2023/07/12 10:29:56;;;;;;;4.57;4.17;;;28.40;55.00;;;;;;4993449;28;20806;-65
2023/07/12 10:32:27;;;;;;;5.73;5.23;;;28.40;55.00;;;;;;4993020;28;20420;-64
2023/07/12 10:35:21;;;;;;;4.93;4.13;;;28.40;54.90;;;;;;4993257;28;20550;-66
2023/07/12 10:38:12;;;;;;;5.63;4.77;;;28.40;54.90;;;;;;4988441;28;20486;-66
2023/07/12 10:40:53;;;;;;;5.10;4.60;;;28.40;54.90;;;;;;4993386;28;20388;-65
2023/07/12 10:43:38;;;;;;;4.97;4.47;;;28.40;54.90;;;;;;4993361;28;20904;-65
2023/07/12 10:46:30;;;;;;;5.00;4.50;;;28.40;54.90;;;;;;4993287;28;20550;-64
2023/07/12 10:48:56;;;;;;;5.60;5.00;;;28.40;55.00;;;;;;4987649;28;20464;-66
2023/07/12 10:51:27;;;;;;;5.30;4.90;;;28.40;55.20;;;;;;4993368;28;20440;-65
2023/07/12 10:53:55;;;;;;;5.63;4.90;;;28.40;55.00;;;;;;4993019;28;20185;-67
2023/07/12 10:56:32;;;;;;;5.73;5.13;;;28.40;55.00;;;;;;4992987;28;20440;-66
2023/07/12 10:59:03;;;;;;;5.53;5.13;;;28.40;55.00;;;;;;4992977;28;20428;-66
2023/07/12 11:01:40;;;;;;;5.60;5.00;;;28.40;54.90;;;;;;4993141;28;20432;-66
2023/07/12 11:04:10;;;;;;;5.10;4.70;;;28.40;54.90;;;;;;4993142;28;20428;-64
2023/07/12 11:06:40;;;;;;;4.90;4.40;;;28.40;54.90;;;;;;4991646;28;20882;-65
2023/07/12 11:09:10;;;;;;;4.83;4.33;;;28.40;54.90;;;;;;4992878;28;20431;-66
2023/07/12 11:11:55;;;;;;;5.57;5.07;;;28.40;54.90;;;;;;4992830;28;20417;-65
2023/07/12 11:14:43;;;;;;;5.30;4.87;;;28.40;54.80;;;;;;4992708;28;20451;-66
2023/07/12 11:17:11;;;;;;;5.40;5.00;;;28.40;54.80;;;;;;4993105;28;20507;-66
2023/07/12 11:19:40;;;;;;;5.40;4.90;;;28.40;54.80;;;;;;4992808;28;20439;-65
2023/07/12 11:22:14;;;;;;;5.50;5.00;;;28.40;54.80;;;;;;4993037;28;20413;-66
2023/07/12 11:24:58;;;;;;;5.00;4.60;;;28.40;54.80;;;;;;4992920;28;20506;-65
2023/07/12 11:27:54;;;;;;;5.60;4.70;;;28.40;54.80;;;;;;4992633;28;20863;-65
2023/07/12 11:30:26;;;;;;;4.47;4.07;;;28.40;54.80;;;;;;4992719;28;20884;-64
2023/07/12 11:33:19;;;;;;;5.00;4.60;;;28.40;54.80;;;;;;4991948;28;20408;-65
2023/07/12 11:35:47;;;;;;;4.57;4.17;;;28.40;54.80;;;;;;4987213;28;20416;-66
2023/07/12 11:38:23;;;;;;;5.03;4.63;;;28.40;54.70;;;;;;4992503;28;20440;-66
2023/07/12 11:40:52;;;;;;;5.23;4.83;;;28.40;54.70;;;;;;4992873;28;20400;-65
2023/07/12 11:43:23;;;;;;;6.70;5.30;;;28.40;54.70;;;;;;4992489;28;20466;-66
2023/07/12 11:45:50;;;;;;;6.10;5.50;;;28.40;54.60;;;;;;4991158;28;20514;-65
2023/07/12 11:48:16;;;;;;;5.43;4.93;;;28.40;54.70;;;;;;4992402;28;20463;-66
2023/07/12 11:50:42;;;;;;;5.70;5.20;;;28.40;54.60;;;;;;4992497;28;20976;-65
2023/07/12 11:53:12;;;;;;;5.80;4.73;;;28.40;54.60;;;;;;4992458;28;20227;-65
2023/07/12 11:55:39;;;;;;;5.20;4.70;;;28.40;54.60;;;;;;4992444;28;20177;-65
2023/07/12 11:58:19;;;;;;;5.50;5.00;;;28.40;54.60;;;;;;4992556;28;20432;-64
2023/07/12 12:00:47;;;;;;;6.70;5.30;;;28.40;54.60;;;;;;4992455;28;20945;-65
2023/07/12 12:03:14;;;;;;;5.37;4.87;;;28.40;54.60;;;;;;4991015;28;20475;-66
2023/07/12 12:05:40;;;;;;;5.63;5.23;;;28.40;54.60;;;;;;4992314;28;20424;-65
2023/07/12 12:08:09;;;;;;;5.03;4.53;;;28.40;54.60;;;;;;4992507;28;20494;-66
2023/07/12 12:10:37;;;;;;;5.33;4.83;;;28.40;54.60;;;;;;4991106;28;20862;-66
2023/07/12 12:13:18;;;;;;;5.80;4.90;;;28.40;54.60;;;;;;4992195;28;20455;-64
2023/07/12 12:15:51;;;;;;;5.20;4.70;;;28.40;54.60;;;;;;4992283;28;20417;-65
2023/07/12 12:18:22;;;;;;;6.30;5.70;;;28.40;54.60;;;;;;4992523;28;20439;-66
2023/07/12 12:20:56;;;;;;;6.10;5.13;;;28.40;54.60;;;;;;4992197;28;20844;-64
2023/07/12 12:23:30;;;;;;;5.93;5.43;;;28.40;54.50;;;;;;4992249;28;20388;-65
2023/07/12 12:26:00;;;;;;;5.97;5.47;;;28.40;54.50;;;;;;4992215;28;20403;-64
2023/07/12 12:28:33;;;;;;;4.83;4.43;;;28.40;54.50;;;;;;4991919;28;20523;-66
2023/07/12 12:31:04;;;;;;;5.83;5.33;;;28.40;54.50;;;;;;4992203;28;20758;-66
2023/07/12 12:33:30;;;;;;;5.50;4.83;;;28.40;54.50;;;;;;4992114;28;21067;-65
2023/07/12 12:36:01;;;;;;;5.20;4.70;;;28.40;54.50;;;;;;4992137;28;20512;-62
2023/07/12 12:38:31;;;;;;;5.20;4.70;;;28.40;54.50;;;;;;4992034;28;20692;-65
2023/07/12 12:41:01;;;;;;;5.50;5.00;;;28.40;54.60;;;;;;4992345;28;20558;-66
2023/07/12 12:43:27;;;;;;;5.90;5.33;;;28.50;54.60;;;;;;4992284;28;20420;-65
2023/07/12 12:45:54;;;;;;;7.20;5.60;;;28.40;54.60;;;;;;4994249;28;20799;-65
2023/07/12 12:48:19;;;;;;;5.60;5.20;;;28.50;54.60;;;;;;4995461;28;20304;-62
2023/07/12 12:50:45;;;;;;;5.97;5.40;;;28.50;54.60;;;;;;4995355;28;20495;-65
2023/07/12 12:53:13;;;;;;;5.90;5.00;;;28.50;54.60;;;;;;4995287;28;20201;-66
2023/07/12 12:55:39;;;;;;;5.30;4.80;;;28.40;55.10;;;;;;4995411;28;20170;-65